createdAt,value
2018-07-25T00:02:13.207Z,20.30
2018-07-25T00:07:13.593Z,20.40
2018-07-25T00:09:44.363Z,20.40
2018-07-25T00:12:14.872Z,20.30
2018-07-25T00:19:45.138Z,20.20
2018-07-25T00:22:15.492Z,20.20
2018-07-25T00:24:46.266Z,20.20
2018-07-25T00:27:17.025Z,20.10
2018-07-25T00:29:47.738Z,20.10
2018-07-25T00:34:48.516Z,20.00
2018-07-25T00:37:18.997Z,20.00
2018-07-25T00:39:49.519Z,20.10
2018-07-25T00:42:20.241Z,20.10
2018-07-25T00:47:20.774Z,20.20
2018-07-25T00:49:51.401Z,20.20
2018-07-25T00:52:21.982Z,20.10
2018-07-25T00:54:52.441Z,20.20
2018-07-25T00:57:23.086Z,20.20
2018-07-25T00:59:53.704Z,20.20
2018-07-25T01:04:54.205Z,20.20
2018-07-25T01:07:24.728Z,20.20
2018-07-25T01:09:55.512Z,20.10
2018-07-25T01:12:25.970Z,20.10
2018-07-25T01:14:56.665Z,20.10
2018-07-25T01:17:27.248Z,20.00
2018-07-25T01:19:57.772Z,20.00
2018-07-25T01:22:28.462Z,20.10
2018-07-25T01:24:59.223Z,20.20
2018-07-25T01:27:30.160Z,20.20
2018-07-25T01:30:01.009Z,20.20
2018-07-25T01:32:31.523Z,20.20
2018-07-25T01:35:02.204Z,20.20
2018-07-25T01:37:32.934Z,20.20
2018-07-25T01:40:03.665Z,20.10
2018-07-25T01:45:04.449Z,20.10
2018-07-25T01:47:35.602Z,20.10
2018-07-25T01:50:06.464Z,20.10
2018-07-25T01:52:37.261Z,20.10
2018-07-25T02:00:07.840Z,20.20
2018-07-25T02:02:38.408Z,20.20
2018-07-25T02:05:08.871Z,20.20
2018-07-25T02:12:39.053Z,20.30
2018-07-25T02:15:09.682Z,20.30
2018-07-25T02:17:40.712Z,20.30
2018-07-25T02:20:11.250Z,20.30
2018-07-25T02:22:41.780Z,20.30
2018-07-25T02:27:42.214Z,20.40
2018-07-25T02:30:12.999Z,20.40
2018-07-25T02:32:43.794Z,20.40
2018-07-25T02:35:14.973Z,20.40
2018-07-25T02:37:45.477Z,20.40
2018-07-25T02:42:45.651Z,20.30
2018-07-25T02:45:16.214Z,20.20
2018-07-25T02:47:46.765Z,20.20
2018-07-25T02:52:47.315Z,20.20
2018-07-25T02:55:18.137Z,20.10
2018-07-25T02:57:49.375Z,20.10
2018-07-25T03:00:19.813Z,20.10
2018-07-25T03:02:50.408Z,20.10
2018-07-25T03:05:20.927Z,20.10
2018-07-25T03:07:51.611Z,20.10
2018-07-25T03:10:22.043Z,20.20
2018-07-25T03:12:52.767Z,20.10
2018-07-25T03:15:23.348Z,20.10
2018-07-25T03:17:54.358Z,20.10
2018-07-25T03:22:54.473Z,20.10
2018-07-25T03:25:24.955Z,20.10
2018-07-25T03:27:55.525Z,20.10
2018-07-25T03:30:26.149Z,20.10
2018-07-25T03:35:27.032Z,20.10
2018-07-25T03:40:27.520Z,20.10
2018-07-25T03:42:58.164Z,20.10
2018-07-25T03:45:28.686Z,20.20
2018-07-25T03:47:59.138Z,20.20
2018-07-25T03:50:29.817Z,20.20
2018-07-25T03:53:00.406Z,20.20
2018-07-25T03:55:30.820Z,20.30
2018-07-25T03:58:01.348Z,20.40
2018-07-25T04:00:31.867Z,20.50
2018-07-25T04:03:02.558Z,20.60
2018-07-25T04:05:33.366Z,20.70
2018-07-25T04:08:03.945Z,20.80
2018-07-25T04:13:04.291Z,21.00
2018-07-25T04:15:34.651Z,21.00
2018-07-25T04:18:05.556Z,21.10
2018-07-25T04:20:36.270Z,21.20
2018-07-25T04:23:07.160Z,21.40
2018-07-25T04:28:07.460Z,21.60
2018-07-25T04:30:38.213Z,21.80
2018-07-25T04:33:08.674Z,21.90
2018-07-25T04:35:39.087Z,22.00
2018-07-25T04:38:09.585Z,22.20
2018-07-25T04:40:40.162Z,22.40
2018-07-25T04:43:10.542Z,22.70
2018-07-25T04:45:41.388Z,22.80
2018-07-25T04:48:11.901Z,22.90
2018-07-25T04:50:42.615Z,23.10
2018-07-25T04:53:13.023Z,23.10
2018-07-25T04:55:43.768Z,23.10
2018-07-25T04:58:14.328Z,23.20
2018-07-25T05:00:45.371Z,23.20
2018-07-25T05:03:16.151Z,23.20
2018-07-25T05:08:16.482Z,23.10
2018-07-25T05:10:47.031Z,23.00
2018-07-25T05:13:17.554Z,22.80
2018-07-25T05:15:47.962Z,22.80
2018-07-25T05:18:18.561Z,22.90
2018-07-25T05:20:49.010Z,22.90
2018-07-25T05:23:19.601Z,23.00
2018-07-25T05:25:50.043Z,23.10
2018-07-25T05:28:20.623Z,23.20
2018-07-25T05:33:21.378Z,23.40
2018-07-25T05:35:51.869Z,23.50
2018-07-25T05:38:22.427Z,23.70
2018-07-25T05:40:52.786Z,23.90
2018-07-25T05:43:23.641Z,23.90
2018-07-25T05:45:54.529Z,23.70
2018-07-25T05:50:55.282Z,23.60
2018-07-25T05:55:56.315Z,23.50
2018-07-25T05:58:26.734Z,23.50
2018-07-25T06:00:57.642Z,23.40
2018-07-25T06:03:28.346Z,23.40
2018-07-25T06:05:58.876Z,23.40
2018-07-25T06:08:29.521Z,23.40
2018-07-25T06:10:59.989Z,23.30
2018-07-25T06:13:30.486Z,23.20
2018-07-25T06:16:01.129Z,23.20
2018-07-25T06:18:31.769Z,23.20
2018-07-25T06:21:02.217Z,23.20
2018-07-25T06:26:02.717Z,23.40
2018-07-25T06:28:33.209Z,23.50
2018-07-25T06:31:03.775Z,23.50
2018-07-25T06:36:05.230Z,23.60
2018-07-25T06:41:05.768Z,23.70
2018-07-25T06:43:36.270Z,23.70
2018-07-25T06:46:07.145Z,23.70
2018-07-25T06:48:37.935Z,23.60
2018-07-25T06:51:09.038Z,23.70
2018-07-25T06:53:40.169Z,23.70
2018-07-25T06:56:10.708Z,23.70
2018-07-25T06:58:41.070Z,23.80
2018-07-25T07:01:11.525Z,23.90
2018-07-25T07:03:42.091Z,24.10
2018-07-25T07:06:12.715Z,24.20
2018-07-25T07:08:43.143Z,24.40
2018-07-25T07:11:13.724Z,24.60
2018-07-25T07:13:44.333Z,24.50
2018-07-25T07:16:14.754Z,24.90
2018-07-25T07:18:45.368Z,24.80
2018-07-25T07:23:45.546Z,25.20
2018-07-25T07:26:15.875Z,25.30
2018-07-25T07:28:46.310Z,25.20
2018-07-25T07:31:16.821Z,25.30
2018-07-25T07:33:47.317Z,25.40
2018-07-25T07:36:17.719Z,25.20
2018-07-25T07:38:48.249Z,25.30
2018-07-25T07:41:18.760Z,25.30
2018-07-25T07:43:49.181Z,25.30
2018-07-25T07:46:19.770Z,25.30
2018-07-25T07:48:50.166Z,25.40
2018-07-25T07:51:20.856Z,25.20
2018-07-25T07:53:51.702Z,25.30
2018-07-25T07:56:22.072Z,25.70
2018-07-25T07:58:52.408Z,25.80
2018-07-25T08:01:22.879Z,26.00
2018-07-25T08:03:53.650Z,26.30
2018-07-25T08:06:24.081Z,26.80
2018-07-25T08:08:54.598Z,27.20
2018-07-25T08:11:24.950Z,27.60
2018-07-25T08:13:55.718Z,27.90
2018-07-25T08:16:26.324Z,27.90
2018-07-25T08:18:56.724Z,27.60
2018-07-25T08:21:27.443Z,27.60
2018-07-25T08:23:58.139Z,27.70
2018-07-25T08:26:28.699Z,27.50
2018-07-25T08:28:59.109Z,27.50
2018-07-25T08:31:29.535Z,27.40
2018-07-25T08:36:30.242Z,27.20
2018-07-25T08:39:00.632Z,27.00
2018-07-25T08:44:00.936Z,27.40
2018-07-25T08:46:31.354Z,27.40
2018-07-25T08:49:01.842Z,27.40
2018-07-25T08:51:32.389Z,27.80
2018-07-25T08:54:03.201Z,27.90
2018-07-25T08:56:34.081Z,27.60
2018-07-25T08:59:04.533Z,27.50
2018-07-25T09:01:34.976Z,27.20
2018-07-25T09:04:05.419Z,27.20
2018-07-25T09:06:35.997Z,27.20
2018-07-25T09:09:09.813Z,27.40
2018-07-25T09:11:40.505Z,27.30
2018-07-25T09:14:10.956Z,27.20
2018-07-25T09:16:41.497Z,27.30
2018-07-25T09:19:11.974Z,27.10
2018-07-25T09:21:43.374Z,27.20
2018-07-25T09:24:13.795Z,27.10
2018-07-25T09:26:44.289Z,27.20
2018-07-25T09:29:14.809Z,27.60
2018-07-25T09:31:45.273Z,28.00
2018-07-25T09:34:15.773Z,28.50
2018-07-25T09:36:46.676Z,28.80
2018-07-25T09:39:17.194Z,29.20
2018-07-25T09:41:47.757Z,29.30
2018-07-25T09:44:18.354Z,29.30
2018-07-25T09:46:48.910Z,29.20
2018-07-25T09:49:19.448Z,29.40
2018-07-25T09:51:50.162Z,29.20
2018-07-25T09:56:50.291Z,29.60
2018-07-25T09:59:21.026Z,30.00
2018-07-25T10:01:51.558Z,29.80
2018-07-25T10:04:22.117Z,30.30
2018-07-25T10:06:52.595Z,30.30
2018-07-25T10:09:23.140Z,30.40
2018-07-25T10:11:53.684Z,30.40
2018-07-25T10:16:53.792Z,29.40
2018-07-25T10:19:24.378Z,29.10
2018-07-25T10:21:55.122Z,29.50
2018-07-25T10:24:25.797Z,30.00
2018-07-25T10:29:25.979Z,30.20
2018-07-25T10:31:56.526Z,30.10
2018-07-25T10:34:27.028Z,30.10
2018-07-25T10:36:57.519Z,30.60
2018-07-25T10:39:28.390Z,30.90
2018-07-25T10:41:58.883Z,31.00
2018-07-25T10:44:29.518Z,30.50
2018-07-25T10:47:00.172Z,30.30
2018-07-25T10:52:00.220Z,30.80
2018-07-25T10:54:30.701Z,31.30
2018-07-25T10:57:01.233Z,31.70
2018-07-25T10:59:31.672Z,31.90
2018-07-25T11:02:02.196Z,31.40
2018-07-25T11:04:32.608Z,31.00
2018-07-25T11:07:03.143Z,30.60
2018-07-25T11:09:33.566Z,30.40
2018-07-25T11:12:04.408Z,30.20
2018-07-25T11:17:04.990Z,30.10
2018-07-25T11:19:35.499Z,29.80
2018-07-25T11:22:05.981Z,29.90
2018-07-25T11:24:36.767Z,29.60
2018-07-25T11:27:07.287Z,29.20
2018-07-25T11:29:38.092Z,29.50
2018-07-25T11:32:08.443Z,29.50
2018-07-25T11:34:39.040Z,29.80
2018-07-25T11:37:15.982Z,30.10
2018-07-25T11:39:46.408Z,30.20
2018-07-25T11:42:16.990Z,30.20
2018-07-25T11:44:47.840Z,30.20
2018-07-25T11:47:18.268Z,30.20
2018-07-25T11:49:49.074Z,30.60
2018-07-25T11:52:19.486Z,30.60
2018-07-25T11:54:50.002Z,30.40
2018-07-25T11:57:20.603Z,30.30
2018-07-25T11:59:51.098Z,30.20
2018-07-25T12:02:22.094Z,30.10
2018-07-25T12:07:22.268Z,30.60
2018-07-25T12:09:53.162Z,31.00
2018-07-25T12:12:23.938Z,31.20
2018-07-25T12:14:54.392Z,31.50
2018-07-25T12:17:25.090Z,31.60
2018-07-25T12:19:55.566Z,31.30
2018-07-25T12:22:26.229Z,31.80
2018-07-25T12:24:56.882Z,31.70
2018-07-25T12:27:27.354Z,31.90
2018-07-25T12:29:57.826Z,32.30
2018-07-25T12:32:28.856Z,32.40
2018-07-25T12:34:59.301Z,32.40
2018-07-25T12:37:30.291Z,32.10
2018-07-25T12:40:00.802Z,32.00
2018-07-25T12:42:31.369Z,31.90
2018-07-25T12:45:01.863Z,31.90
2018-07-25T12:47:32.802Z,32.00
2018-07-25T12:50:03.182Z,32.10
2018-07-25T12:52:34.828Z,32.00
2018-07-25T12:55:05.231Z,32.30
2018-07-25T13:00:06.586Z,32.30
2018-07-25T13:02:39.238Z,32.40
2018-07-25T13:05:12.588Z,32.40
2018-07-25T13:07:43.446Z,32.30
2018-07-25T13:10:13.997Z,32.20
2018-07-25T13:12:44.368Z,32.50
2018-07-25T13:17:45.720Z,32.30
2018-07-25T13:20:16.405Z,32.50
2018-07-25T13:22:47.303Z,32.50
2018-07-25T13:25:17.804Z,32.90
2018-07-25T13:27:48.286Z,32.80
2018-07-25T13:30:18.899Z,32.70
2018-07-25T13:35:19.329Z,32.30
2018-07-25T13:37:49.769Z,32.30
2018-07-25T13:40:20.242Z,32.50
2018-07-25T13:42:51.692Z,32.50
2018-07-25T13:45:22.175Z,32.50
2018-07-25T13:47:52.728Z,32.50
2018-07-25T13:50:23.615Z,32.40
2018-07-25T13:52:55.725Z,32.10
2018-07-25T13:55:27.857Z,32.60
2018-07-25T13:57:58.705Z,32.50
2018-07-25T14:00:29.506Z,32.50
2018-07-25T14:05:30.250Z,32.10
2018-07-25T14:08:01.295Z,32.20
2018-07-25T14:10:31.986Z,32.10
2018-07-25T14:13:02.341Z,32.00
2018-07-25T14:15:33.054Z,31.80
2018-07-25T14:20:33.451Z,31.50
2018-07-25T14:23:04.061Z,31.70
2018-07-25T14:25:34.490Z,31.20
2018-07-25T14:28:05.061Z,31.60
2018-07-25T14:35:35.522Z,31.70
2018-07-25T14:38:07.067Z,32.10
2018-07-25T14:40:37.595Z,31.90
2018-07-25T14:45:37.720Z,32.30
2018-07-25T14:48:08.423Z,32.30
2018-07-25T14:50:39.215Z,32.50
2018-07-25T14:53:09.898Z,32.60
2018-07-25T14:55:40.361Z,32.60
2018-07-25T14:58:11.336Z,32.30
2018-07-25T15:00:41.922Z,32.60
2018-07-25T15:05:42.361Z,32.80
2018-07-25T15:08:13.135Z,33.30
2018-07-25T15:10:43.948Z,33.20
2018-07-25T15:13:14.260Z,33.50
2018-07-25T15:18:14.534Z,33.40
2018-07-25T15:20:45.170Z,33.70
2018-07-25T15:23:23.754Z,33.80
2018-07-25T15:25:54.316Z,33.80
2018-07-25T15:28:24.964Z,33.30
2018-07-25T15:33:25.383Z,33.60
2018-07-25T15:35:56.102Z,33.20
2018-07-25T15:38:26.702Z,33.00
2018-07-25T15:40:57.211Z,33.10
2018-07-25T15:43:27.718Z,33.30
2018-07-25T16:27:39.453Z,31.00
2018-07-25T16:30:11.925Z,30.90
2018-07-25T16:32:43.775Z,30.30
2018-07-25T16:35:15.770Z,29.60
2018-07-25T16:37:47.679Z,29.40
2018-07-25T16:40:19.850Z,29.20
2018-07-25T16:42:51.679Z,29.00
2018-07-25T16:45:23.721Z,28.80
2018-07-25T16:47:56.506Z,28.60
2018-07-25T16:50:28.480Z,28.50
2018-07-25T16:53:00.708Z,28.30
2018-07-25T16:55:32.966Z,28.20
2018-07-25T16:58:05.065Z,27.90
2018-07-25T17:00:37.348Z,27.90
2018-07-25T17:03:10.015Z,27.90
2018-07-25T17:05:42.643Z,27.80
2018-07-25T17:08:14.703Z,27.60
2018-07-25T17:10:47.356Z,27.60
2018-07-25T17:13:20.174Z,27.40
2018-07-25T17:15:52.723Z,27.40
2018-07-25T17:18:24.588Z,27.20
2018-07-25T17:20:56.367Z,27.10
2018-07-25T17:23:28.581Z,27.00
2018-07-25T17:26:01.016Z,26.80
2018-07-25T17:28:32.726Z,26.70
2018-07-25T17:31:04.610Z,26.70
2018-07-25T17:33:37.165Z,26.50
2018-07-25T17:38:39.845Z,26.50
2018-07-25T17:41:12.273Z,26.40
2018-07-25T17:46:16.471Z,26.30
2018-07-25T17:48:48.814Z,26.30
2018-07-25T17:51:21.538Z,26.20
2018-07-25T17:56:24.437Z,26.00
2018-07-25T17:58:56.707Z,26.00
2018-07-25T18:03:59.676Z,25.80
2018-07-25T18:06:31.799Z,25.70
2018-07-25T18:09:03.616Z,25.70
2018-07-25T18:11:38.398Z,25.70
2018-07-25T18:14:14.043Z,25.70
2018-07-25T18:16:46.887Z,25.60
2018-07-25T18:19:18.853Z,25.50
2018-07-25T18:24:21.849Z,25.50
2018-07-25T18:26:54.045Z,25.40
2018-07-25T18:29:26.547Z,25.30
2018-07-25T18:31:58.393Z,25.30
2018-07-25T18:34:30.441Z,25.30
2018-07-25T18:37:02.488Z,25.30
2018-07-25T18:39:34.771Z,25.20
2018-07-25T18:42:07.444Z,25.10
2018-07-25T18:44:39.576Z,25.00
2018-07-25T18:47:12.767Z,24.90
2018-07-25T18:49:45.599Z,24.90
2018-07-25T18:52:20.706Z,24.80
2018-07-25T18:54:54.957Z,24.80
2018-07-25T18:59:59.256Z,24.80
2018-07-25T19:02:32.078Z,24.80
2018-07-25T19:05:04.317Z,24.80
2018-07-25T19:07:37.478Z,24.80
2018-07-25T19:12:41.375Z,24.60
2018-07-25T19:15:18.030Z,24.50
2018-07-25T19:17:49.976Z,24.40
2018-07-25T19:20:22.449Z,24.20
2018-07-25T19:22:54.827Z,24.10
2018-07-25T19:25:27.125Z,24.10
2018-07-25T19:27:58.966Z,24.00
2018-07-25T19:30:32.631Z,24.00
2018-07-25T19:33:04.549Z,24.00
2018-07-25T19:35:36.919Z,24.00
2018-07-25T19:38:08.936Z,24.00
2018-07-25T19:40:41.885Z,24.00
2018-07-25T19:43:14.989Z,23.80
2018-07-25T19:50:50.419Z,23.40
2018-07-25T19:53:23.129Z,23.40
2018-07-25T19:55:58.185Z,23.30
2018-07-25T19:58:31.089Z,23.30
2018-07-25T20:01:03.718Z,23.20
2018-07-25T20:03:43.192Z,23.20
2018-07-25T20:06:15.531Z,23.10
2018-07-25T20:08:47.487Z,23.10
2018-07-25T20:11:19.988Z,23.00
2018-07-25T20:13:57.125Z,23.00
2018-07-25T20:16:29.241Z,22.90
2018-07-25T20:19:01.434Z,22.90
2018-07-25T20:21:33.437Z,22.90
2018-07-25T20:24:05.388Z,22.90
2018-07-25T20:26:38.282Z,22.90
2018-07-25T20:29:10.981Z,22.80
2018-07-25T20:31:42.861Z,22.80
2018-07-25T20:34:14.870Z,22.80
2018-07-25T20:36:46.785Z,22.70
2018-07-25T20:39:20.429Z,22.70
2018-07-25T20:41:52.279Z,22.70
2018-07-25T20:44:25.094Z,22.60
2018-07-25T20:46:58.552Z,22.60
2018-07-25T20:49:30.720Z,22.70
2018-07-25T20:52:03.060Z,22.60
2018-07-25T20:54:35.784Z,22.50
2018-07-25T20:57:09.139Z,22.50
2018-07-25T20:59:43.667Z,22.40
2018-07-25T21:02:15.673Z,22.40
2018-07-25T21:04:49.191Z,22.40
2018-07-25T21:07:21.441Z,22.40
2018-07-25T21:09:53.516Z,22.40
2018-07-25T21:12:25.816Z,22.30
2018-07-25T21:14:57.865Z,22.20
2018-07-25T21:17:29.909Z,22.20
2018-07-25T21:20:02.550Z,22.10
2018-07-25T21:22:34.363Z,22.10
2018-07-25T21:25:08.288Z,22.00
2018-07-25T21:30:11.202Z,21.80
2018-07-25T21:32:43.349Z,21.80
2018-07-25T21:37:45.979Z,21.80
2018-07-25T21:40:17.668Z,21.80
2018-07-25T21:42:49.788Z,21.80
2018-07-25T21:45:22.472Z,21.80
2018-07-25T21:47:54.697Z,21.90
2018-07-25T21:50:26.511Z,21.80
2018-07-25T21:52:58.710Z,21.70
2018-07-25T21:55:30.800Z,21.80
2018-07-25T21:58:02.750Z,21.80
2018-07-25T22:00:34.862Z,21.80
2018-07-25T22:03:06.778Z,21.80
2018-07-25T22:05:39.006Z,21.80
2018-07-25T22:08:11.229Z,21.80
2018-07-25T22:10:42.873Z,21.70
2018-07-25T22:13:15.036Z,21.70
2018-07-25T22:15:46.749Z,21.60
2018-07-25T22:18:18.304Z,21.60
2018-07-25T22:20:50.183Z,21.50
2018-07-25T22:23:21.236Z,21.50
2018-07-25T22:25:51.842Z,21.50
2018-07-25T22:28:22.340Z,21.40
2018-07-25T22:30:52.733Z,21.40
2018-07-25T22:33:23.214Z,21.40
2018-07-25T22:38:23.334Z,21.30
2018-07-25T22:40:53.804Z,21.30
2018-07-25T22:43:24.481Z,21.30
2018-07-25T22:45:54.862Z,21.20
2018-07-25T22:48:25.313Z,21.20
2018-07-25T22:50:55.885Z,21.20
2018-07-25T22:55:56.137Z,21.20
2018-07-25T22:58:26.673Z,21.10
2018-07-25T23:00:57.511Z,21.10
2018-07-25T23:03:27.978Z,21.10
2018-07-25T23:05:58.481Z,21.10
2018-07-25T23:08:28.816Z,21.10
2018-07-25T23:10:59.151Z,21.00
2018-07-25T23:13:29.534Z,21.00
2018-07-25T23:15:59.920Z,21.00
2018-07-25T23:18:31.038Z,21.00
2018-07-25T23:21:01.646Z,20.90
2018-07-25T23:23:32.321Z,20.90
2018-07-25T23:26:03.649Z,20.80
2018-07-25T23:28:34.572Z,20.80
2018-07-25T23:31:05.195Z,20.80
2018-07-25T23:36:06.062Z,20.80
2018-07-25T23:38:36.828Z,20.80
2018-07-25T23:41:07.339Z,20.80
2018-07-25T23:43:38.085Z,20.80
2018-07-25T23:46:08.605Z,20.80
2018-07-25T23:48:39.451Z,20.80
2018-07-25T23:51:10.142Z,20.80
2018-07-25T23:53:41.421Z,20.80
2018-07-25T23:56:12.138Z,20.70
2018-07-25T23:58:42.752Z,20.70
